Time;durP1;ratioP1;P1;durP2;ratioP2;P2;SDS_P1;SDS_P2;PMS_P1;PMS_P2;Temp;Humidity;BMP_temperature;BMP_pressure;BME280_temperature;BME280_humidity;BME280_pressure;Samples;Min_cycle;Max_cycle;Signal;HPM_P1;HPM_P2
2021/08/17 00:07:08;;;;;;;4.95;1.88;;;26.30;31.70;;;;;;21147040;27;83131;-74
2021/08/17 00:17:11;;;;;;;3.97;1.77;;;26.10;32.10;;;;;;21126931;27;81891;-75
2021/08/17 00:27:12;;;;;;;4.78;2.10;;;25.90;32.40;;;;;;21126486;27;81103;-74
2021/08/17 00:37:15;;;;;;;6.95;2.22;;;25.60;32.90;;;;;;21143508;27;82061;-76
2021/08/17 00:47:17;;;;;;;7.63;1.88;;;25.40;33.20;;;;;;21127072;27;80557;-75
2021/08/17 00:57:19;;;;;;;5.45;1.90;;;25.20;33.30;;;;;;21125929;27;79864;-77
2021/08/17 01:07:21;;;;;;;6.20;2.15;;;25.00;33.70;;;;;;21127383;27;80901;-76
2021/08/17 01:17:23;;;;;;;3.95;1.85;;;24.90;33.60;;;;;;21126478;27;83681;-73
2021/08/17 01:27:24;;;;;;;4.82;2.20;;;24.80;33.50;;;;;;21122190;27;81002;-74
2021/08/17 01:37:26;;;;;;;5.40;2.30;;;24.60;33.50;;;;;;21122716;27;81119;-74
2021/08/17 01:47:36;;;;;;;7.15;1.75;;;24.40;36.90;;;;;;21139472;27;81239;-74
2021/08/17 01:57:45;;;;;;;5.10;2.00;;;24.20;36.60;;;;;;21138551;27;82197;-74
2021/08/17 02:07:58;;;;;;;4.75;2.35;;;24.10;35.40;;;;;;21121424;27;80532;-74
2021/08/17 02:18:06;;;;;;;4.57;2.10;;;23.90;35.50;;;;;;21121474;27;80076;-74
2021/08/17 02:28:12;;;;;;;5.32;1.90;;;23.90;35.70;;;;;;21119931;27;82255;-74
2021/08/17 02:38:21;;;;;;;3.38;2.15;;;23.80;35.30;;;;;;21119093;27;80502;-74
2021/08/17 02:48:31;;;;;;;5.45;2.28;;;23.70;35.00;;;;;;21119017;27;80051;-74
2021/08/17 02:58:36;;;;;;;7.70;2.80;;;23.50;35.10;;;;;;21137209;27;81204;-74
2021/08/17 03:08:46;;;;;;;5.18;2.53;;;23.40;35.10;;;;;;21132100;27;81841;-74
2021/08/17 03:18:53;;;;;;;5.20;2.25;;;23.30;35.60;;;;;;21131535;27;81718;-73
2021/08/17 03:29:05;;;;;;;5.63;2.38;;;23.20;35.30;;;;;;21131373;27;81790;-73
2021/08/17 03:39:12;;;;;;;5.18;2.92;;;23.00;35.50;;;;;;21129034;27;80735;-73
2021/08/17 03:49:24;;;;;;;8.15;2.80;;;22.70;37.10;;;;;;21147032;27;81194;-74
2021/08/17 03:59:33;;;;;;;6.57;3.20;;;22.60;35.80;;;;;;21146651;27;83308;-73
2021/08/17 04:09:39;;;;;;;7.82;3.47;;;22.40;35.80;;;;;;21126535;27;81691;-73
2021/08/17 04:19:46;;;;;;;5.28;2.58;;;22.30;35.30;;;;;;21144742;27;80822;-73
2021/08/17 04:29:52;;;;;;;5.32;2.22;;;22.10;35.60;;;;;;21127214;27;80470;-72
2021/08/17 04:39:56;;;;;;;7.63;2.50;;;22.00;35.90;;;;;;21143038;27;80819;-73
2021/08/17 04:50:06;;;;;;;8.65;2.75;;;22.00;35.50;;;;;;21125510;27;80054;-73
2021/08/17 05:00:11;;;;;;;4.90;2.42;;;21.90;34.80;;;;;;21124422;27;80780;-75
2021/08/17 05:10:16;;;;;;;4.65;2.67;;;21.80;34.40;;;;;;21141848;27;80750;-73
2021/08/17 05:20:17;;;;;;;6.93;3.13;;;21.70;34.60;;;;;;21134251;27;81345;-74
2021/08/17 05:30:20;;;;;;;5.97;2.63;;;21.70;34.90;;;;;;21185533;27;82248;-76
2021/08/17 05:40:24;;;;;;;5.78;2.80;;;21.50;36.10;;;;;;21195229;27;81816;-75
2021/08/17 05:50:27;;;;;;;4.95;1.60;;;21.40;36.20;;;;;;21212305;27;80685;-74
2021/08/17 06:00:30;;;;;;;5.22;1.95;;;21.40;36.40;;;;;;21194325;27;81344;-72
2021/08/17 06:10:32;;;;;;;4.32;1.85;;;21.40;37.10;;;;;;21193471;27;80736;-65
2021/08/17 06:20:35;;;;;;;4.93;1.67;;;21.50;36.60;;;;;;21212224;27;81271;-79
2021/08/17 06:30:38;;;;;;;4.65;2.05;;;21.50;36.60;;;;;;21190127;27;81578;-78
2021/08/17 06:40:40;;;;;;;10.30;2.00;;;21.60;36.70;;;;;;21205002;27;81398;-76
2021/08/17 06:50:43;;;;;;;3.78;1.70;;;21.70;36.80;;;;;;21202592;27;82136;-76
2021/08/17 07:00:47;;;;;;;5.80;1.85;;;21.90;36.60;;;;;;21204911;27;81186;-77
2021/08/17 07:10:49;;;;;;;7.40;1.75;;;21.90;36.30;;;;;;21206140;27;80168;-75
2021/08/17 07:20:52;;;;;;;11.25;2.28;;;21.80;36.50;;;;;;21225650;27;81254;-77
2021/08/17 07:30:54;;;;;;;11.90;2.20;;;22.10;36.20;;;;;;21199986;27;81120;-66
2021/08/17 07:40:59;;;;;;;4.50;1.35;;;22.30;36.40;;;;;;21203301;27;81003;-66
2021/08/17 07:51:01;;;;;;;3.97;1.30;;;22.40;36.20;;;;;;21202752;27;81259;-66
2021/08/17 08:01:04;;;;;;;3.28;1.70;;;22.70;35.70;;;;;;21212925;27;81282;-67
2021/08/17 08:11:06;;;;;;;4.63;1.30;;;23.00;35.30;;;;;;21197554;27;81607;-66
2021/08/17 08:21:08;;;;;;;3.72;1.48;;;23.20;35.20;;;;;;21200443;27;80726;-69
2021/08/17 08:31:10;;;;;;;4.05;1.17;;;23.40;34.90;;;;;;21198637;27;82034;-68
2021/08/17 08:41:16;;;;;;;4.03;1.92;;;23.90;34.60;;;;;;21194990;27;81666;-68
2021/08/17 08:51:20;;;;;;;7.93;1.77;;;24.30;34.30;;;;;;21219149;27;80949;-69
2021/08/17 09:01:23;;;;;;;4.47;1.60;;;24.80;34.00;;;;;;21212204;27;81857;-69
2021/08/17 09:11:26;;;;;;;5.03;1.55;;;25.20;33.60;;;;;;21195397;27;81576;-70
2021/08/17 09:21:33;;;;;;;3.97;1.80;;;25.40;33.60;;;;;;21197315;27;82176;-66
2021/08/17 09:31:41;;;;;;;8.90;1.75;;;25.70;32.70;;;;;;21196335;27;82121;-67
2021/08/17 09:41:44;;;;;;;6.47;1.55;;;26.00;32.90;;;;;;21196499;27;82294;-68
2021/08/17 09:51:47;;;;;;;8.02;2.10;;;26.70;32.20;;;;;;21214083;27;81357;-68
2021/08/17 10:01:50;;;;;;;7.70;2.00;;;27.70;31.80;;;;;;21187659;27;82345;-66
2021/08/17 10:11:52;;;;;;;8.00;2.53;;;28.50;31.40;;;;;;21203368;27;81662;-66
2021/08/17 10:22:00;;;;;;;8.50;2.78;;;29.60;30.70;;;;;;21227798;27;81533;-66
2021/08/17 10:32:03;;;;;;;4.80;2.50;;;30.70;30.50;;;;;;21208116;27;81073;-68
2021/08/17 10:42:22;;;;;;;92.22;59.85;;;32.00;29.40;;;;;;21207543;27;81248;-67
2021/08/17 10:52:36;;;;;;;6.70;3.42;;;33.40;29.30;;;;;;21192923;27;83750;-68
2021/08/17 11:02:55;;;;;;;9.32;5.45;;;35.50;26.80;;;;;;21205875;27;83408;-66
2021/08/17 11:13:08;;;;;;;7.45;3.20;;;38.20;24.20;;;;;;21202840;27;81944;-65
2021/08/17 11:23:18;;;;;;;14.23;4.20;;;41.00;21.00;;;;;;21197868;27;81180;-66
2021/08/17 11:33:21;;;;;;;6.30;2.70;;;44.20;17.80;;;;;;21221746;27;81376;-65
2021/08/17 11:43:23;;;;;;;5.22;3.00;;;46.80;15.40;;;;;;21202303;27;81706;-66
2021/08/17 11:53:26;;;;;;;9.10;2.63;;;48.50;14.50;;;;;;21202352;27;82700;-68
2021/08/17 12:03:29;;;;;;;5.10;3.25;;;49.90;13.50;;;;;;21202609;27;81645;-64
2021/08/17 12:13:38;;;;;;;7.65;3.45;;;51.20;13.00;;;;;;21203522;27;80847;-66
2021/08/17 12:23:46;;;;;;;6.97;3.33;;;51.90;12.50;;;;;;21198061;27;81751;-65
2021/08/17 12:33:55;;;;;;;7.33;3.20;;;50.50;13.00;;;;;;21200311;27;81420;-70
2021/08/17 12:43:57;;;;;;;5.20;3.10;;;53.10;11.80;;;;;;21197480;27;81336;-69
2021/08/17 12:53:59;;;;;;;4.82;2.97;;;54.20;11.00;;;;;;21197536;27;82236;-69
2021/08/17 13:04:00;;;;;;;3.75;3.03;;;55.00;10.40;;;;;;21203715;27;80782;-61
2021/08/17 13:14:02;;;;;;;5.53;3.88;;;57.40;9.60;;;;;;21229445;27;80661;-62
2021/08/17 13:24:04;;;;;;;5.05;3.35;;;55.40;10.20;;;;;;21210379;27;80685;-64
2021/08/17 13:34:05;;;;;;;8.23;3.67;;;49.40;12.10;;;;;;21228730;27;81131;-64
2021/08/17 13:44:07;;;;;;;5.53;3.28;;;49.90;11.10;;;;;;21208753;27;81044;-64
2021/08/17 13:54:09;;;;;;;7.63;3.92;;;50.20;10.90;;;;;;21207537;27;80742;-61
2021/08/17 14:04:11;;;;;;;4.28;3.65;;;51.30;10.50;;;;;;21225692;27;80508;-63
2021/08/17 14:14:14;;;;;;;5.68;3.95;;;52.60;9.90;;;;;;21220916;27;80676;-64
2021/08/17 14:24:16;;;;;;;5.07;4.65;;;53.90;9.60;;;;;;21223403;27;80979;-69
2021/08/17 14:34:18;;;;;;;5.43;4.93;;;56.00;9.60;;;;;;21207288;27;82028;-71
2021/08/17 14:44:21;;;;;;;7.15;6.05;;;57.90;8.70;;;;;;21206196;27;81278;-70
2021/08/17 14:54:23;;;;;;;6.60;5.95;;;59.70;8.60;;;;;;21198543;27;81527;-70
2021/08/17 15:04:25;;;;;;;6.07;5.55;;;59.10;8.50;;;;;;21216481;27;80635;-71
2021/08/17 15:14:29;;;;;;;5.75;4.95;;;55.20;9.20;;;;;;21237080;27;80650;-71
2021/08/17 15:24:32;;;;;;;5.00;3.85;;;48.80;10.60;;;;;;21235094;27;80668;-70
2021/08/17 15:34:34;;;;;;;9.68;3.00;;;45.00;11.90;;;;;;21216801;27;79831;-70
2021/08/17 15:44:36;;;;;;;5.32;3.03;;;43.70;12.40;;;;;;21215745;27;81135;-70
2021/08/17 15:54:38;;;;;;;6.00;2.50;;;42.30;12.70;;;;;;21234096;27;81921;-70
2021/08/17 16:04:41;;;;;;;6.55;4.45;;;44.60;11.50;;;;;;21232030;27;80679;-71
2021/08/17 16:14:44;;;;;;;4.80;2.95;;;45.40;11.80;;;;;;21214933;27;81267;-70
2021/08/17 16:24:46;;;;;;;5.22;2.80;;;46.20;11.90;;;;;;21214032;27;80062;-71
2021/08/17 16:34:48;;;;;;;2.70;2.30;;;42.10;12.70;;;;;;21232494;27;80710;-70
2021/08/17 16:44:50;;;;;;;7.97;3.72;;;41.50;12.90;;;;;;21213046;27;80867;-72
2021/08/17 16:54:52;;;;;;;3.55;2.63;;;39.80;14.80;;;;;;21212655;27;80698;-71
2021/08/17 17:04:55;;;;;;;4.97;2.75;;;39.80;13.80;;;;;;21141132;27;81865;-73
2021/08/17 17:14:57;;;;;;;79.20;47.58;;;41.00;13.30;;;;;;21124227;27;81250;-71
2021/08/17 17:24:59;;;;;;;12.57;7.50;;;38.60;16.10;;;;;;21104902;27;83133;-71
2021/08/17 17:35:00;;;;;;;9.52;6.18;;;37.60;15.70;;;;;;21140000;27;84207;-69
2021/08/17 17:45:03;;;;;;;13.40;9.32;;;37.20;16.20;;;;;;21119906;27;81283;-70
2021/08/17 17:55:05;;;;;;;5.88;2.22;;;37.10;16.00;;;;;;21120137;27;80070;-68
2021/08/17 18:05:09;;;;;;;7.15;3.03;;;36.60;16.20;;;;;;21120917;27;81004;-67
2021/08/17 18:15:13;;;;;;;4.65;3.13;;;36.80;16.10;;;;;;21121015;27;81135;-70
2021/08/17 18:25:16;;;;;;;16.90;10.55;;;36.70;16.00;;;;;;21118952;27;79948;-68
2021/08/17 18:35:18;;;;;;;22.35;12.90;;;38.00;15.50;;;;;;21120029;27;83311;-70
2021/08/17 18:45:21;;;;;;;8.30;2.53;;;37.00;16.20;;;;;;21118629;27;83278;-66
2021/08/17 18:55:23;;;;;;;4.63;2.13;;;34.50;17.60;;;;;;21132672;27;83885;-72
2021/08/17 19:05:25;;;;;;;9.70;2.65;;;33.50;17.20;;;;;;21151230;27;80847;-71
2021/08/17 19:15:27;;;;;;;14.90;2.97;;;32.90;17.10;;;;;;21133767;27;82016;-72
2021/08/17 19:25:29;;;;;;;16.48;2.90;;;32.40;16.80;;;;;;21137312;27;80036;-71
2021/08/17 19:35:31;;;;;;;5.05;2.88;;;32.00;17.20;;;;;;21127431;27;80746;-69
2021/08/17 19:45:34;;;;;;;6.07;2.33;;;31.60;17.10;;;;;;21164986;27;80139;-71
2021/08/17 19:55:35;;;;;;;5.35;2.80;;;31.30;18.60;;;;;;21214641;27;80776;-73
2021/08/17 20:05:37;;;;;;;6.65;2.55;;;31.00;17.60;;;;;;21214567;27;80926;-72
2021/08/17 20:15:40;;;;;;;6.22;2.60;;;30.70;17.60;;;;;;21213795;27;79993;-71
2021/08/17 20:25:43;;;;;;;4.47;1.90;;;30.70;18.70;;;;;;21212924;27;81273;-70
2021/08/17 20:35:45;;;;;;;9.00;2.55;;;30.40;19.20;;;;;;21212930;27;80759;-75
2021/08/17 20:45:48;;;;;;;8.30;2.75;;;30.30;19.40;;;;;;21213759;27;81927;-72
2021/08/17 20:55:50;;;;;;;6.57;2.33;;;30.00;19.40;;;;;;21210616;27;80577;-72
2021/08/17 21:05:53;;;;;;;4.85;2.60;;;29.80;19.70;;;;;;21209806;27;81288;-72
2021/08/17 21:15:56;;;;;;;5.57;1.88;;;29.60;20.00;;;;;;21209478;27;80666;-72
2021/08/17 21:25:58;;;;;;;3.67;1.95;;;29.50;20.10;;;;;;21226738;27;80977;-74
2021/08/17 21:36:00;;;;;;;6.13;2.50;;;29.30;20.50;;;;;;21208299;27;80975;-72
2021/08/17 21:46:04;;;;;;;4.50;2.10;;;29.00;20.80;;;;;;21207814;27;81889;-70
2021/08/17 21:56:06;;;;;;;4.65;1.50;;;28.90;21.30;;;;;;21207157;27;80530;-73
2021/08/17 22:06:08;;;;;;;3.90;1.98;;;28.70;21.60;;;;;;21211726;27;80953;-71
2021/08/17 22:16:10;;;;;;;4.43;2.03;;;28.50;21.90;;;;;;21221707;27;80644;-72
2021/08/17 22:26:13;;;;;;;6.03;1.73;;;28.40;22.40;;;;;;21221344;27;81689;-71
2021/08/17 22:36:15;;;;;;;7.55;2.60;;;28.20;22.80;;;;;;21239737;27;80888;-73
2021/08/17 22:46:17;;;;;;;3.67;1.33;;;28.00;23.10;;;;;;21219778;27;80432;-73
2021/08/17 22:56:19;;;;;;;9.65;1.92;;;27.80;23.50;;;;;;21218834;27;80743;-71
2021/08/17 23:06:21;;;;;;;3.50;1.80;;;27.60;24.20;;;;;;21236897;27;80930;-71
2021/08/17 23:16:24;;;;;;;4.22;1.35;;;27.40;25.30;;;;;;21219789;27;81757;-72
2021/08/17 23:26:25;;;;;;;7.95;1.60;;;27.20;26.50;;;;;;21219022;27;81602;-72
2021/08/17 23:36:27;;;;;;;6.90;2.20;;;27.00;27.50;;;;;;21218692;27;84110;-71
2021/08/17 23:46:29;;;;;;;5.78;2.15;;;26.80;28.10;;;;;;21215589;27;80806;-71
2021/08/17 23:56:32;;;;;;;5.35;1.45;;;26.60;28.70;;;;;;21215015;27;80922;-74
